createdAt,value
2022-08-10T00:01:51.213Z,68.19
2022-08-10T00:04:22.306Z,68.06
2022-08-10T00:06:54.910Z,68.33
2022-08-10T00:09:23.245Z,68.05
2022-08-10T00:11:51.125Z,68.00
2022-08-10T00:14:18.907Z,67.80
2022-08-10T00:16:46.588Z,68.06
2022-08-10T00:19:16.773Z,67.88
2022-08-10T00:21:46.243Z,67.93
2022-08-10T00:24:14.029Z,67.83
2022-08-10T00:27:52.818Z,67.84
2022-08-10T00:29:30.225Z,67.61
2022-08-10T00:31:59.464Z,67.80
2022-08-10T00:34:38.603Z,67.91
2022-08-10T00:37:06.161Z,67.68
2022-08-10T00:39:36.453Z,67.58
2022-08-10T00:42:11.994Z,67.66
2022-08-10T00:44:42.995Z,67.74
2022-08-10T00:47:15.361Z,67.60
2022-08-10T00:50:00.222Z,67.71
2022-08-10T00:52:30.101Z,67.71
2022-08-10T00:54:58.784Z,67.70
2022-08-10T00:57:26.517Z,67.76
2022-08-10T00:59:57.793Z,67.48
2022-08-10T01:02:32.859Z,67.73
2022-08-10T01:05:06.480Z,67.85
2022-08-10T01:08:07.485Z,68.46
2022-08-10T01:11:02.189Z,68.28
2022-08-10T01:13:40.000Z,68.27
2022-08-10T01:16:36.644Z,68.11
2022-08-10T01:19:10.139Z,68.32
2022-08-10T01:22:11.596Z,68.50
2022-08-10T01:25:11.267Z,68.45
2022-08-10T01:28:17.134Z,68.67
2022-08-10T01:30:47.296Z,68.45
2022-08-10T01:33:31.839Z,68.82
2022-08-10T01:36:20.478Z,68.95
2022-08-10T01:39:04.091Z,69.01
2022-08-10T01:41:46.095Z,69.34
2022-08-10T01:44:24.056Z,69.47
2022-08-10T01:46:56.619Z,69.34
2022-08-10T01:49:25.931Z,68.67
2022-08-10T01:51:56.567Z,68.78
2022-08-10T01:54:29.789Z,68.97
2022-08-10T01:57:00.373Z,69.03
2022-08-10T01:59:41.033Z,68.80
2022-08-10T02:02:23.652Z,68.86
2022-08-10T02:04:53.334Z,68.66
2022-08-10T02:07:31.479Z,68.63
2022-08-10T02:10:03.745Z,68.73
2022-08-10T02:12:34.499Z,68.54
2022-08-10T02:15:12.986Z,68.99
2022-08-10T02:18:00.083Z,68.80
2022-08-10T02:20:38.040Z,68.69
2022-08-10T02:23:11.725Z,68.90
2022-08-10T02:25:43.605Z,68.53
2022-08-10T02:28:29.646Z,69.02
2022-08-10T02:31:11.356Z,68.52
2022-08-10T02:33:56.207Z,67.98
2022-08-10T02:36:29.589Z,67.78
2022-08-10T02:39:01.168Z,67.68
2022-08-10T02:45:14.850Z,67.60
2022-08-10T02:45:21.963Z,67.31
2022-08-10T02:47:46.564Z,67.53
2022-08-10T02:50:28.947Z,67.17
2022-08-10T02:53:51.761Z,66.90
2022-08-10T02:56:10.120Z,66.68
2022-08-10T02:58:43.118Z,66.45
2022-08-10T03:01:17.763Z,66.51
2022-08-10T03:03:57.303Z,66.54
2022-08-10T03:06:30.741Z,66.21
2022-08-10T03:09:00.506Z,66.22
2022-08-10T03:12:37.158Z,66.08
2022-08-10T03:14:20.134Z,66.07
2022-08-10T03:16:50.328Z,66.16
2022-08-10T03:20:34.181Z,66.17
2022-08-10T03:22:09.467Z,66.18
2022-08-10T03:24:38.704Z,66.44
2022-08-10T03:27:06.753Z,66.21
2022-08-10T03:30:28.423Z,66.06
2022-08-10T03:32:24.325Z,65.76
2022-08-10T03:34:54.001Z,65.29
2022-08-10T03:37:21.742Z,64.75
2022-08-10T03:39:51.478Z,64.45
2022-08-10T03:42:20.835Z,64.26
2022-08-10T03:44:50.664Z,63.86
2022-08-10T03:47:20.374Z,63.69
2022-08-10T03:49:49.776Z,63.61
2022-08-10T03:52:19.397Z,63.28
2022-08-10T03:54:54.564Z,62.76
2022-08-10T03:57:29.976Z,61.82
2022-08-10T03:59:57.967Z,60.94
2022-08-10T04:02:44.007Z,59.87
2022-08-10T04:05:17.497Z,58.35
2022-08-10T04:07:45.538Z,57.81
2022-08-10T04:10:14.517Z,57.35
2022-08-10T04:12:42.218Z,57.32
2022-08-10T04:15:10.374Z,57.33
2022-08-10T04:18:04.157Z,57.18
2022-08-10T04:20:55.646Z,57.05
2022-08-10T04:23:27.423Z,57.50
2022-08-10T04:25:56.236Z,57.96
2022-08-10T04:28:31.819Z,58.13
2022-08-10T04:31:01.984Z,57.48
2022-08-10T04:33:32.821Z,57.03
2022-08-10T04:36:01.151Z,56.58
2022-08-10T04:38:32.244Z,55.89
2022-08-10T04:41:00.066Z,55.58
2022-08-10T04:43:27.842Z,54.86
2022-08-10T04:45:55.748Z,54.22
2022-08-10T04:48:40.278Z,53.47
2022-08-10T04:51:19.226Z,52.90
2022-08-10T04:54:02.691Z,52.70
2022-08-10T04:56:38.807Z,52.08
2022-08-10T04:59:08.327Z,52.06
2022-08-10T05:02:12.477Z,51.64
2022-08-10T05:04:35.285Z,50.98
2022-08-10T05:07:17.036Z,50.78
2022-08-10T05:10:01.017Z,51.24
2022-08-10T05:12:32.192Z,52.04
2022-08-10T05:15:11.310Z,52.40
2022-08-10T05:17:40.370Z,52.91
2022-08-10T05:20:10.394Z,53.20
2022-08-10T05:22:43.518Z,53.59
2022-08-10T05:25:14.586Z,53.18
2022-08-10T05:27:43.929Z,53.54
2022-08-10T05:30:14.551Z,53.25
2022-08-10T05:32:57.445Z,53.12
2022-08-10T05:35:29.101Z,53.33
2022-08-10T05:41:03.193Z,53.32
2022-08-10T05:43:30.794Z,52.97
2022-08-10T05:46:19.013Z,52.67
2022-08-10T05:48:58.596Z,52.52
2022-08-10T05:51:30.271Z,52.42
2022-08-10T05:54:06.017Z,52.31
2022-08-10T05:56:55.860Z,52.44
2022-08-10T06:00:11.206Z,52.28
2022-08-10T06:02:33.609Z,51.77
2022-08-10T06:05:18.878Z,51.46
2022-08-10T06:07:58.136Z,51.17
2022-08-10T06:10:32.725Z,50.80
2022-08-10T06:13:30.053Z,51.02
2022-08-10T06:16:04.781Z,51.22
2022-08-10T06:18:32.912Z,51.06
2022-08-10T06:21:01.067Z,51.07
2022-08-10T06:23:30.711Z,50.76
2022-08-10T06:26:12.167Z,50.77
2022-08-10T06:29:07.270Z,50.36
2022-08-10T06:31:48.458Z,49.80
2022-08-10T06:34:26.226Z,49.74
2022-08-10T06:36:57.669Z,49.18
2022-08-10T06:39:34.997Z,48.76
2022-08-10T06:42:15.979Z,48.48
2022-08-10T06:44:52.873Z,47.54
2022-08-10T06:47:23.827Z,46.69
2022-08-10T06:49:59.898Z,45.91
2022-08-10T06:52:31.770Z,44.90
2022-08-10T06:55:00.920Z,44.54
2022-08-10T06:57:34.794Z,43.29
2022-08-10T07:00:04.643Z,42.86
2022-08-10T07:02:56.239Z,43.43
2022-08-10T07:05:27.305Z,43.58
2022-08-10T07:07:58.294Z,42.70
2022-08-10T07:10:41.156Z,41.91
2022-08-10T07:14:16.602Z,41.34
2022-08-10T07:16:08.152Z,41.43
2022-08-10T07:18:37.357Z,41.73
2022-08-10T07:21:07.312Z,41.65
2022-08-10T07:23:58.665Z,41.15
2022-08-10T07:26:25.486Z,41.12
2022-08-10T07:28:54.506Z,40.53
2022-08-10T07:31:55.005Z,38.77
2022-08-10T07:34:14.153Z,35.88
2022-08-10T07:37:01.401Z,31.95
2022-08-10T07:39:57.823Z,31.89
2022-08-10T07:42:22.281Z,30.76
2022-08-10T07:44:50.863Z,31.85
2022-08-10T07:47:53.240Z,30.43
2022-08-10T07:50:17.499Z,30.16
2022-08-10T07:52:49.513Z,29.60
2022-08-10T07:56:04.214Z,29.71
2022-08-10T07:58:10.694Z,31.13
2022-08-10T08:00:44.173Z,31.28
2022-08-10T08:03:15.076Z,32.28
2022-08-10T08:05:59.398Z,33.08
2022-08-10T08:08:35.713Z,34.50
2022-08-10T08:11:04.661Z,34.94
2022-08-10T08:13:34.105Z,35.09
2022-08-10T08:16:18.138Z,34.27
2022-08-10T08:19:16.519Z,33.95
2022-08-10T08:24:07.236Z,32.99
2022-08-10T08:24:31.616Z,31.82
2022-08-10T08:27:02.960Z,32.06
2022-08-10T08:29:35.330Z,31.36
2022-08-10T08:32:04.919Z,30.88
2022-08-10T08:34:34.510Z,30.28
2022-08-10T08:37:07.277Z,28.01
2022-08-10T08:39:37.223Z,27.43
2022-08-10T08:42:20.081Z,26.27
2022-08-10T08:44:55.504Z,25.32
2022-08-10T08:48:04.149Z,25.67
2022-08-10T08:50:40.162Z,25.29
2022-08-10T08:54:02.245Z,25.51
2022-08-10T08:56:29.066Z,25.43
2022-08-10T08:59:05.837Z,25.68
2022-08-10T09:02:01.098Z,26.25
2022-08-10T09:04:46.811Z,25.98
2022-08-10T09:08:02.115Z,26.40
2022-08-10T09:10:49.942Z,26.66
2022-08-10T09:13:27.322Z,27.17
2022-08-10T09:16:19.534Z,27.55
2022-08-10T09:19:11.555Z,27.83
2022-08-10T09:22:17.358Z,27.23
2022-08-10T09:24:54.659Z,26.27
2022-08-10T09:27:35.743Z,26.66
2022-08-10T09:30:07.674Z,26.24
2022-08-10T09:36:13.943Z,25.38
2022-08-10T09:36:22.100Z,25.61
2022-08-10T09:40:46.245Z,26.56
2022-08-10T09:42:14.869Z,25.94
2022-08-10T09:44:58.536Z,26.11
2022-08-10T09:47:58.817Z,25.10
2022-08-10T09:53:46.292Z,22.54
2022-08-10T09:57:41.598Z,22.57
2022-08-10T10:00:12.485Z,22.07
2022-08-10T10:02:54.958Z,22.80
2022-08-10T10:05:50.359Z,23.41
2022-08-10T10:08:42.753Z,24.44
2022-08-10T10:11:37.860Z,24.58
2022-08-10T10:14:23.788Z,25.19
2022-08-10T10:17:17.448Z,25.77
2022-08-10T10:20:02.994Z,26.44
2022-08-10T10:22:57.699Z,27.28
2022-08-10T10:25:51.531Z,27.25
2022-08-10T10:29:19.672Z,27.72
2022-08-10T10:31:43.369Z,27.19
2022-08-10T10:34:58.532Z,26.76
2022-08-10T10:38:01.755Z,25.56
2022-08-10T10:40:17.235Z,24.72
2022-08-10T10:43:32.874Z,24.77
2022-08-10T10:46:06.307Z,24.84
2022-08-10T10:48:45.330Z,25.40
2022-08-10T10:51:21.829Z,25.17
2022-08-10T10:54:09.515Z,24.89
2022-08-10T10:57:01.578Z,24.77
2022-08-10T10:59:55.872Z,24.27
2022-08-10T11:02:28.681Z,24.96
2022-08-10T11:05:22.090Z,26.47
2022-08-10T11:07:59.315Z,26.68
2022-08-10T11:10:38.549Z,25.24
2022-08-10T11:14:25.050Z,24.25
2022-08-10T11:16:29.965Z,24.71
2022-08-10T11:19:18.315Z,25.13
2022-08-10T11:22:20.290Z,25.20
2022-08-10T11:24:58.370Z,24.82
2022-08-10T11:28:10.861Z,25.98
2022-08-10T11:31:21.343Z,26.83
2022-08-10T11:34:49.086Z,26.77
2022-08-10T11:37:16.298Z,26.27
2022-08-10T11:40:13.008Z,25.37
2022-08-10T11:43:08.293Z,24.24
2022-08-10T11:45:39.124Z,23.08
2022-08-10T11:48:53.102Z,21.91
2022-08-10T11:51:36.670Z,21.48
2022-08-10T11:54:10.461Z,22.39
2022-08-10T11:56:49.041Z,22.78
2022-08-10T11:59:41.892Z,23.61
2022-08-10T12:02:13.223Z,23.67
2022-08-10T12:04:45.400Z,23.27
2022-08-10T12:10:02.164Z,23.07
2022-08-10T12:10:13.058Z,22.72
2022-08-10T12:12:51.056Z,23.32
2022-08-10T12:15:29.628Z,23.75
2022-08-10T12:18:03.866Z,23.29
2022-08-10T12:20:41.892Z,24.21
2022-08-10T12:23:22.424Z,24.31
2022-08-10T12:26:09.186Z,24.19
2022-08-10T12:28:49.871Z,21.36
2022-08-10T12:31:28.053Z,19.52
2022-08-10T12:34:38.030Z,18.61
2022-08-10T12:37:59.491Z,18.54
2022-08-10T12:40:37.757Z,18.30
2022-08-10T12:44:04.346Z,18.49
2022-08-10T12:46:26.288Z,18.41
2022-08-10T12:49:03.463Z,20.34
2022-08-10T12:51:33.851Z,21.56
2022-08-10T12:54:09.410Z,22.93
2022-08-10T12:56:48.928Z,24.75
2022-08-10T12:59:18.774Z,25.62
2022-08-10T13:02:07.481Z,26.74
2022-08-10T13:04:40.654Z,27.06
2022-08-10T13:07:10.192Z,26.76
2022-08-10T13:09:56.041Z,26.88
2022-08-10T13:12:44.609Z,27.23
2022-08-10T13:15:48.161Z,27.76
2022-08-10T13:18:19.687Z,28.22
2022-08-10T13:20:53.228Z,27.75
2022-08-10T13:23:25.099Z,28.60
2022-08-10T13:25:56.819Z,29.08
2022-08-10T13:28:45.369Z,30.00
2022-08-10T13:31:18.718Z,30.51
2022-08-10T13:34:36.544Z,30.15
2022-08-10T13:36:45.170Z,30.84
2022-08-10T13:39:14.332Z,31.44
2022-08-10T13:41:45.446Z,32.01
2022-08-10T13:44:29.108Z,32.48
2022-08-10T13:46:57.530Z,32.59
2022-08-10T13:49:27.053Z,31.86
2022-08-10T13:51:58.179Z,31.91
2022-08-10T13:54:29.283Z,32.30
2022-08-10T13:56:58.085Z,32.42
2022-08-10T14:00:36.733Z,32.59
2022-08-10T14:02:25.330Z,33.12
2022-08-10T14:04:56.000Z,32.46
2022-08-10T14:07:26.365Z,32.54
2022-08-10T14:10:00.862Z,33.04
2022-08-10T14:12:33.545Z,33.37
2022-08-10T14:15:06.309Z,33.88
2022-08-10T14:17:37.731Z,34.09
2022-08-10T14:20:14.004Z,34.28
2022-08-10T14:22:43.645Z,34.50
2022-08-10T14:25:14.729Z,34.60
2022-08-10T14:28:02.249Z,34.90
2022-08-10T14:30:33.197Z,35.16
2022-08-10T14:33:04.810Z,35.13
2022-08-10T14:36:19.625Z,35.63
2022-08-10T14:38:33.690Z,35.63
2022-08-10T14:41:04.233Z,35.46
2022-08-10T14:43:42.464Z,35.82
2022-08-10T14:46:20.091Z,35.93
2022-08-10T14:48:52.233Z,35.97
2022-08-10T14:51:26.155Z,36.08
2022-08-10T14:53:59.039Z,36.65
2022-08-10T14:56:30.249Z,36.95
2022-08-10T14:59:06.849Z,36.94
2022-08-10T15:02:39.135Z,37.42
2022-08-10T15:04:35.280Z,36.95
2022-08-10T15:07:29.994Z,37.22
2022-08-10T15:10:00.796Z,37.25
2022-08-10T15:12:35.952Z,37.38
2022-08-10T15:15:06.471Z,37.18
2022-08-10T15:17:42.168Z,37.62
2022-08-10T15:20:20.831Z,38.08
2022-08-10T15:22:53.043Z,38.01
2022-08-10T15:25:24.831Z,37.67
2022-08-10T15:28:10.608Z,38.40
2022-08-10T15:30:43.515Z,37.83
2022-08-10T15:33:57.729Z,38.23
2022-08-10T15:36:42.045Z,38.01
2022-08-10T15:40:20.664Z,37.78
2022-08-10T15:42:09.533Z,38.31
2022-08-10T15:44:43.768Z,38.01
2022-08-10T15:47:25.611Z,38.38
2022-08-10T15:50:03.929Z,38.60
2022-08-10T15:53:01.696Z,38.65
2022-08-10T15:55:42.493Z,38.59
2022-08-10T15:58:39.900Z,39.05
2022-08-10T16:02:04.495Z,39.22
2022-08-10T16:04:11.362Z,39.32
2022-08-10T16:07:00.769Z,39.53
2022-08-10T16:10:23.797Z,39.77
2022-08-10T16:12:41.138Z,40.08
2022-08-10T16:15:17.347Z,40.29
2022-08-10T16:17:55.957Z,40.37
2022-08-10T16:20:52.518Z,41.18
2022-08-10T16:23:29.885Z,40.93
2022-08-10T16:26:05.338Z,40.94
2022-08-10T16:28:48.679Z,41.07
2022-08-10T16:31:28.139Z,41.36
2022-08-10T16:33:59.455Z,41.67
2022-08-10T16:36:57.982Z,41.29
2022-08-10T16:39:58.916Z,41.31
2022-08-10T16:42:20.774Z,41.58
2022-08-10T16:44:54.894Z,41.25
2022-08-10T16:47:27.483Z,41.25
2022-08-10T16:50:01.528Z,41.29
2022-08-10T16:52:36.198Z,41.14
2022-08-10T16:55:24.308Z,41.05
2022-08-10T16:58:09.341Z,41.12
2022-08-10T17:00:37.866Z,41.00
2022-08-10T17:04:04.579Z,41.01
2022-08-10T17:06:01.674Z,41.00
2022-08-10T17:08:48.436Z,41.09
2022-08-10T17:11:18.840Z,41.11
2022-08-10T17:13:47.707Z,41.27
2022-08-10T17:16:17.692Z,41.20
2022-08-10T17:18:48.505Z,41.10
2022-08-10T17:21:20.887Z,41.25
2022-08-10T17:23:53.856Z,41.87
2022-08-10T17:26:36.978Z,41.72
2022-08-10T17:29:53.745Z,42.04
2022-08-10T17:32:19.335Z,42.19
2022-08-10T17:34:51.944Z,42.40
2022-08-10T17:37:22.781Z,42.21
2022-08-10T17:39:56.747Z,42.43
2022-08-10T17:42:27.056Z,42.24
2022-08-10T17:44:55.945Z,42.57
2022-08-10T17:47:27.472Z,42.58
2022-08-10T17:50:02.025Z,43.04
2022-08-10T17:52:33.330Z,42.86
2022-08-10T17:55:05.440Z,43.16
2022-08-10T17:57:41.025Z,43.52
2022-08-10T18:00:14.459Z,43.20
2022-08-10T18:02:57.450Z,43.54
2022-08-10T18:05:25.355Z,43.52
2022-08-10T18:07:56.691Z,43.77
2022-08-10T18:10:25.801Z,43.66
2022-08-10T18:12:56.571Z,44.13
2022-08-10T18:15:27.778Z,44.30
2022-08-10T18:18:02.860Z,44.54
2022-08-10T18:20:41.198Z,44.49
2022-08-10T18:23:10.414Z,44.14
2022-08-10T18:25:40.801Z,44.26
2022-08-10T18:28:15.151Z,44.13
2022-08-10T18:30:49.998Z,44.23
2022-08-10T18:33:19.770Z,44.02
2022-08-10T18:35:49.940Z,43.82
2022-08-10T18:38:19.356Z,43.86
2022-08-10T18:41:01.939Z,43.66
2022-08-10T18:44:11.269Z,43.24
2022-08-10T18:46:35.514Z,43.12
2022-08-10T18:49:16.995Z,43.38
2022-08-10T18:51:47.435Z,42.76
2022-08-10T18:54:39.228Z,42.56
2022-08-10T18:57:36.200Z,42.51
2022-08-10T19:00:13.570Z,42.30
2022-08-10T19:02:59.498Z,42.38
2022-08-10T19:06:03.717Z,42.37
2022-08-10T19:08:49.028Z,42.59
2022-08-10T19:11:33.082Z,42.06
2022-08-10T19:14:13.494Z,42.21
2022-08-10T19:17:04.471Z,42.20
2022-08-10T19:20:07.673Z,42.16
2022-08-10T19:23:05.101Z,42.45
2022-08-10T19:26:32.932Z,42.08
2022-08-10T19:28:53.275Z,41.77
2022-08-10T19:31:24.068Z,41.94
2022-08-10T19:34:39.768Z,41.78
2022-08-10T19:37:32.407Z,41.77
2022-08-10T19:40:44.866Z,41.81
2022-08-10T19:44:02.492Z,41.69
2022-08-10T19:46:44.716Z,41.88
2022-08-10T19:49:41.622Z,41.98
2022-08-10T19:52:29.575Z,41.35
2022-08-10T19:55:05.210Z,41.36
2022-08-10T19:58:07.349Z,41.27
2022-08-10T20:00:48.044Z,41.70
2022-08-10T20:03:15.610Z,41.16
2022-08-10T20:06:19.623Z,40.73
2022-08-10T20:09:08.791Z,40.64
2022-08-10T20:12:01.620Z,40.72
2022-08-10T20:14:42.573Z,40.40
2022-08-10T20:17:16.714Z,40.53
2022-08-10T20:20:16.179Z,40.52
2022-08-10T20:23:16.193Z,40.28
2022-08-10T20:26:13.387Z,40.56
2022-08-10T20:29:01.069Z,40.38
2022-08-10T20:31:51.972Z,40.32
2022-08-10T20:34:25.984Z,40.22
2022-08-10T20:37:01.320Z,40.37
2022-08-10T20:39:56.904Z,40.29
2022-08-10T20:42:42.577Z,40.68
2022-08-10T20:45:46.394Z,40.21
2022-08-10T20:48:26.237Z,40.76
2022-08-10T20:50:56.859Z,40.61
2022-08-10T20:53:30.808Z,41.24
2022-08-10T20:56:17.068Z,41.26
2022-08-10T20:58:50.460Z,41.15
2022-08-10T21:02:07.063Z,41.25
2022-08-10T21:04:19.376Z,41.17
2022-08-10T21:06:52.179Z,41.20
2022-08-10T21:09:45.683Z,41.60
2022-08-10T21:12:30.666Z,41.43
2022-08-10T21:15:01.370Z,41.60
2022-08-10T21:17:41.369Z,41.49
2022-08-10T21:20:35.202Z,41.74
2022-08-10T21:26:09.017Z,42.82
2022-08-10T21:29:09.945Z,42.00
2022-08-10T21:31:59.094Z,42.20
2022-08-10T21:34:38.049Z,42.66
2022-08-10T21:37:20.590Z,42.14
2022-08-10T21:39:54.359Z,42.74
2022-08-10T21:43:07.162Z,42.76
2022-08-10T21:46:20.173Z,42.91
2022-08-10T21:49:15.383Z,43.58
2022-08-10T21:52:09.885Z,42.97
2022-08-10T21:55:22.292Z,43.30
2022-08-10T21:58:33.091Z,43.30
2022-08-10T22:01:39.145Z,42.85
2022-08-10T22:04:26.852Z,43.02
2022-08-10T22:07:18.133Z,43.08
2022-08-10T22:10:09.644Z,43.46
2022-08-10T22:13:02.855Z,43.49
2022-08-10T22:16:09.673Z,43.23
2022-08-10T22:19:03.488Z,43.62
2022-08-10T22:22:27.131Z,43.83
2022-08-10T22:25:45.395Z,43.31
2022-08-10T22:28:37.150Z,44.00
2022-08-10T22:31:27.654Z,41.63
2022-08-10T22:31:47.994Z,44.13
2022-08-10T22:35:00.551Z,43.89
2022-08-10T22:38:11.433Z,44.24
2022-08-10T22:41:03.399Z,44.31
2022-08-10T22:43:51.989Z,44.81
2022-08-10T22:46:42.370Z,44.80
2022-08-10T22:49:10.795Z,45.16
2022-08-10T22:51:58.041Z,45.53
2022-08-10T22:54:53.974Z,45.54
2022-08-10T22:57:43.648Z,45.64
2022-08-10T23:00:20.302Z,45.89
2022-08-10T23:03:16.744Z,46.24
2022-08-10T23:05:59.928Z,46.20
2022-08-10T23:08:50.010Z,46.14
2022-08-10T23:11:42.541Z,46.80
2022-08-10T23:14:16.797Z,46.84
2022-08-10T23:17:13.325Z,46.77
2022-08-10T23:19:45.210Z,47.83
2022-08-10T23:22:15.490Z,47.07
2022-08-10T23:24:53.810Z,46.92
2022-08-10T23:27:38.646Z,47.44
2022-08-10T23:30:16.951Z,47.08
2022-08-10T23:32:49.017Z,47.46
2022-08-10T23:36:31.733Z,48.33
2022-08-10T23:38:22.663Z,47.67
2022-08-10T23:40:53.540Z,47.69
2022-08-10T23:43:41.066Z,48.18
2022-08-10T23:46:15.707Z,48.21
2022-08-10T23:48:51.587Z,48.58
2022-08-10T23:51:27.142Z,49.16
2022-08-10T23:54:15.155Z,49.02
2022-08-10T23:56:48.641Z,49.70
2022-08-10T23:59:21.136Z,49.18
